Time;durP1;ratioP1;P1;durP2;ratioP2;P2;SDS_P1;SDS_P2;PMS_P1;PMS_P2;Temp;Humidity;BMP_temperature;BMP_pressure;BME280_temperature;BME280_humidity;BME280_pressure;Samples;Min_cycle;Max_cycle;Signal;HPM_P1;HPM_P2
2022/02/01 00:02:44;;;;;;;4.73;1.70;;;;;;;;;;5092039;28;20043;-58
2022/02/01 00:05:18;;;;;;;1.73;0.90;;;;;;;;;;5091918;28;20421;-59
2022/02/01 00:08:05;;;;;;;2.53;1.20;;;;;;;;;;5091567;28;20032;-58
2022/02/01 00:33:07;;;;;;;1.83;1.03;;;;;;;;;;5091958;28;20044;-59
2022/02/01 00:37:05;;;;;;;3.07;1.27;;;;;;;;;;5095518;28;20039;-59
2022/02/01 00:39:41;;;;;;;2.40;1.10;;;;;;;;;;5094994;28;20409;-58
2022/02/01 00:42:08;;;;;;;3.07;1.13;;;;;;;;;;5095237;28;20028;-58
2022/02/01 00:44:34;;;;;;;1.70;1.13;;;;;;;;;;5095114;28;20116;-59
2022/02/01 00:47:00;;;;;;;4.13;0.73;;;;;;;;;;5095138;28;20485;-59
2022/02/01 00:49:28;;;;;;;1.53;1.20;;;;;;;;;;5094691;28;20035;-58
2022/02/01 00:51:54;;;;;;;3.37;1.33;;;;;;;;;;5094851;28;20039;-59
2022/02/01 00:54:20;;;;;;;2.07;1.30;;;;;;;;;;5094965;28;20036;-58
2022/02/01 00:56:46;;;;;;;0.77;0.50;;;;;;;;;;5094872;28;20024;-59
2022/02/01 00:59:12;;;;;;;1.70;0.90;;;;;;;;;;5094229;28;20020;-59
2022/02/01 01:01:38;;;;;;;1.00;0.60;;;;;;;;;;5094832;28;20083;-59
2022/02/01 01:04:04;;;;;;;1.50;0.87;;;;;;;;;;5095037;28;20043;-59
2022/02/01 01:06:30;;;;;;;1.97;1.10;;;;;;;;;;5094963;28;20031;-59
2022/02/01 01:08:56;;;;;;;3.13;0.97;;;;;;;;;;5093981;28;20446;-59
2022/02/01 01:11:22;;;;;;;5.07;1.07;;;;;;;;;;5094703;28;20028;-59
2022/02/01 01:43:46;;;;;;;5.53;2.33;;;;;;;;;;5094019;28;20028;-59
2022/02/01 01:54:10;;;;;;;2.53;2.00;;;;;;;;;;5094234;28;20435;-58
2022/02/01 01:56:36;;;;;;;3.70;1.63;;;;;;;;;;5094008;28;20032;-59
2022/02/01 01:59:03;;;;;;;3.47;1.37;;;;;;;;;;5093516;28;20385;-59
2022/02/01 02:01:30;;;;;;;5.33;1.50;;;;;;;;;;5093869;28;20059;-59
2022/02/01 02:03:56;;;;;;;4.27;1.23;;;;;;;;;;5093632;28;20043;-59
2022/02/01 02:06:22;;;;;;;1.83;1.17;;;;;;;;;;5093842;28;20027;-58
2022/02/01 02:08:52;;;;;;;1.83;1.07;;;;;;;;;;5092945;28;20102;-59
2022/02/01 02:16:43;;;;;;;1.50;0.47;;;;;;;;;;5093863;28;20438;-59
2022/02/01 02:19:10;;;;;;;1.83;1.47;;;;;;;;;;5093214;28;20020;-58
2022/02/01 02:21:36;;;;;;;1.43;0.73;;;;;;;;;;5093425;28;20068;-59
2022/02/01 02:24:03;;;;;;;3.47;1.93;;;;;;;;;;5093154;28;20065;-59
2022/02/01 02:26:28;;;;;;;6.20;1.40;;;;;;;;;;5093269;28;20021;-59
2022/02/01 02:28:55;;;;;;;6.27;1.57;;;;;;;;;;5092409;28;20029;-59
2022/02/01 02:31:22;;;;;;;11.00;2.63;;;;;;;;;;5093447;28;20039;-58
2022/02/01 02:33:48;;;;;;;3.87;1.37;;;;;;;;;;5093209;28;20070;-59
2022/02/01 02:38:53;;;;;;;8.47;2.37;;;;;;;;;;5092443;28;20537;-58
2022/02/01 02:46:37;;;;;;;6.53;1.50;;;;;;;;;;5073094;28;20461;-58
2022/02/01 02:49:05;;;;;;;13.40;1.80;;;;;;;;;;5092255;28;20060;-59
2022/02/01 02:51:31;;;;;;;6.77;1.90;;;;;;;;;;5092922;28;20436;-59
2022/02/01 02:53:57;;;;;;;7.57;2.47;;;;;;;;;;5092461;28;20074;-59
2022/02/01 02:56:23;;;;;;;4.13;1.77;;;;;;;;;;5092114;28;20081;-59
2022/02/01 02:58:52;;;;;;;13.17;3.17;;;;;;;;;;5092279;28;20028;-58
2022/02/01 03:01:21;;;;;;;11.27;2.93;;;;;;;;;;5092745;28;20032;-59
2022/02/01 03:03:47;;;;;;;6.40;1.40;;;;;;;;;;5092910;28;20101;-59
2022/02/01 03:06:13;;;;;;;5.40;1.60;;;;;;;;;;5092702;28;20111;-59
2022/02/01 03:08:39;;;;;;;5.57;1.53;;;;;;;;;;5091702;28;20596;-59
2022/02/01 03:11:11;;;;;;;6.50;1.93;;;;;;;;;;5092627;28;20032;-59
2022/02/01 03:13:39;;;;;;;6.67;1.47;;;;;;;;;;5092485;28;20035;-59
2022/02/01 03:16:13;;;;;;;6.77;2.57;;;;;;;;;;5092499;28;20032;-59
2022/02/01 03:21:23;;;;;;;9.13;1.93;;;;;;;;;;5091673;28;20035;-59
2022/02/01 03:23:49;;;;;;;7.60;3.20;;;;;;;;;;5092493;28;20024;-59
2022/02/01 03:26:15;;;;;;;10.00;2.03;;;;;;;;;;5092415;28;20077;-59
2022/02/01 03:28:41;;;;;;;9.67;2.67;;;;;;;;;;5091833;28;20091;-59
2022/02/01 03:31:07;;;;;;;7.07;2.03;;;;;;;;;;5092452;28;20048;-58
2022/02/01 03:33:33;;;;;;;9.13;2.87;;;;;;;;;;5092646;28;20032;-59
2022/02/01 03:35:59;;;;;;;4.43;1.80;;;;;;;;;;5092524;28;20118;-59
2022/02/01 03:38:25;;;;;;;7.80;2.47;;;;;;;;;;5091840;28;20020;-58
2022/02/01 03:40:52;;;;;;;7.73;1.77;;;;;;;;;;5092340;28;20036;-59
2022/02/01 03:43:18;;;;;;;8.07;1.77;;;;;;;;;;5092242;28;20032;-59
2022/02/01 03:45:44;;;;;;;6.70;2.87;;;;;;;;;;5092171;28;20093;-58
2022/02/01 03:48:10;;;;;;;3.13;2.00;;;;;;;;;;5091323;28;20027;-58
2022/02/01 03:50:36;;;;;;;8.30;1.73;;;;;;;;;;5092217;28;20028;-59
2022/02/01 03:53:02;;;;;;;8.20;1.90;;;;;;;;;;5092204;28;20066;-59
2022/02/01 03:55:28;;;;;;;5.00;2.47;;;;;;;;;;5092139;28;20527;-59
2022/02/01 03:57:54;;;;;;;11.60;3.37;;;;;;;;;;5091534;28;20024;-59
2022/02/01 04:00:20;;;;;;;5.90;2.23;;;;;;;;;;5092088;28;20074;-59
2022/02/01 04:02:46;;;;;;;7.73;2.60;;;;;;;;;;5091790;28;20119;-58
2022/02/01 04:05:12;;;;;;;3.40;1.80;;;;;;;;;;5092406;28;20526;-58
2022/02/01 04:07:43;;;;;;;7.40;2.17;;;;;;;;;;5092313;28;20028;-59
2022/02/01 04:10:09;;;;;;;6.67;3.17;;;;;;;;;;5094709;28;20076;-58
2022/02/01 04:12:35;;;;;;;10.40;2.53;;;;;;;;;;5095720;28;20057;-57
2022/02/01 04:15:01;;;;;;;13.63;2.33;;;;;;;;;;5095779;28;20107;-58
2022/02/01 04:17:27;;;;;;;3.93;2.60;;;;;;;;;;5095838;28;20104;-59
2022/02/01 04:19:54;;;;;;;8.70;3.13;;;;;;;;;;5095429;28;20024;-59
2022/02/01 04:22:20;;;;;;;5.93;1.87;;;;;;;;;;5095847;28;20043;-59
2022/02/01 04:24:46;;;;;;;11.07;1.77;;;;;;;;;;5095895;28;20024;-58
2022/02/01 04:27:30;;;;;;;6.03;1.80;;;;;;;;;;5095722;28;20038;-59
2022/02/01 04:30:05;;;;;;;1.90;1.50;;;;;;;;;;5093977;28;20388;-59
2022/02/01 04:32:31;;;;;;;5.30;2.50;;;;;;;;;;5091689;28;20526;-59
2022/02/01 04:34:59;;;;;;;8.17;2.40;;;;;;;;;;5095648;28;20031;-59
2022/02/01 04:37:29;;;;;;;7.27;2.10;;;;;;;;;;5095694;28;20036;-59
2022/02/01 04:39:55;;;;;;;5.80;1.10;;;;;;;;;;5092522;28;20028;-60
2022/02/01 04:42:22;;;;;;;3.50;1.20;;;;;;;;;;5087133;28;20032;-60
2022/02/01 04:44:48;;;;;;;5.77;1.80;;;;;;;;;;5075243;28;20044;-60
2022/02/01 04:47:14;;;;;;;6.23;1.63;;;;;;;;;;5073060;28;20539;-59
2022/02/01 04:49:40;;;;;;;8.63;2.13;;;;;;;;;;5074443;28;20032;-59
2022/02/01 04:52:06;;;;;;;4.73;2.27;;;;;;;;;;5075060;28;20081;-59
2022/02/01 04:54:32;;;;;;;3.43;1.10;;;;;;;;;;5105502;28;20106;-59
2022/02/01 04:56:58;;;;;;;5.50;2.23;;;;;;;;;;5099962;28;20027;-58
2022/02/01 04:59:24;;;;;;;2.10;1.40;;;;;;;;;;5094664;28;20045;-59
2022/02/01 05:01:50;;;;;;;8.57;2.17;;;;;;;;;;5094925;28;20032;-59
2022/02/01 05:04:19;;;;;;;4.40;1.80;;;;;;;;;;5095145;28;20107;-59
2022/02/01 05:06:54;;;;;;;8.30;2.40;;;;;;;;;;5094939;28;20075;-59
2022/02/01 05:09:20;;;;;;;7.57;1.40;;;;;;;;;;5094159;28;20405;-58
2022/02/01 05:11:48;;;;;;;3.50;1.63;;;;;;;;;;5094082;28;20036;-59
2022/02/01 05:14:20;;;;;;;11.07;2.10;;;;;;;;;;5094920;28;20036;-58
2022/02/01 05:16:58;;;;;;;6.80;1.40;;;;;;;;;;5094932;28;20060;-58
2022/02/01 05:22:03;;;;;;;7.37;1.50;;;;;;;;;;5095093;28;20070;-57
2022/02/01 05:24:29;;;;;;;9.17;1.70;;;;;;;;;;5090335;28;20035;-57
2022/02/01 05:26:56;;;;;;;15.17;2.60;;;;;;;;;;5074467;28;20029;-57
2022/02/01 05:29:23;;;;;;;9.47;1.57;;;;;;;;;;5073673;28;20024;-58
2022/02/01 05:31:51;;;;;;;13.00;2.70;;;;;;;;;;5074247;28;20025;-57
2022/02/01 05:34:17;;;;;;;8.23;2.20;;;;;;;;;;5074064;28;20029;-57
2022/02/01 05:36:43;;;;;;;10.40;2.37;;;;;;;;;;5074533;28;20043;-57
2022/02/01 05:39:16;;;;;;;3.50;1.23;;;;;;;;;;5076836;28;20024;-57
2022/02/01 05:41:43;;;;;;;17.43;2.90;;;;;;;;;;5094449;28;20032;-58
2022/02/01 05:44:09;;;;;;;10.47;3.53;;;;;;;;;;5094055;28;20420;-57
2022/02/01 05:46:35;;;;;;;15.87;1.50;;;;;;;;;;5094294;28;20073;-55
2022/02/01 05:49:01;;;;;;;9.37;2.27;;;;;;;;;;5093260;28;20055;-57
2022/02/01 05:51:27;;;;;;;5.13;1.90;;;;;;;;;;5094126;28;20043;-57
2022/02/01 05:53:53;;;;;;;3.17;1.10;;;;;;;;;;5085406;28;20025;-57
2022/02/01 05:56:19;;;;;;;9.50;3.30;;;;;;;;;;5073864;28;20048;-56
2022/02/01 05:58:45;;;;;;;5.50;2.50;;;;;;;;;;5073009;28;20078;-57
2022/02/01 06:01:11;;;;;;;5.10;2.20;;;;;;;;;;5073681;28;20035;-57
2022/02/01 06:03:37;;;;;;;5.07;1.43;;;;;;;;;;5073482;28;20095;-57
2022/02/01 06:06:03;;;;;;;16.53;2.27;;;;;;;;;;5073677;28;20153;-57
2022/02/01 06:08:29;;;;;;;10.30;2.83;;;;;;;;;;5090509;28;20316;-57
2022/02/01 06:10:55;;;;;;;5.97;1.50;;;;;;;;;;5093866;28;20039;-58
2022/02/01 06:13:21;;;;;;;6.80;1.90;;;;;;;;;;5093779;28;20028;-57
2022/02/01 06:15:47;;;;;;;3.30;1.20;;;;;;;;;;5093305;28;20032;-57
2022/02/01 06:18:13;;;;;;;5.67;1.00;;;;;;;;;;5092935;28;20494;-57
2022/02/01 06:20:39;;;;;;;5.43;1.47;;;;;;;;;;5085322;28;20420;-57
2022/02/01 06:23:12;;;;;;;8.47;2.60;;;;;;;;;;5073309;28;20387;-58
2022/02/01 06:28:06;;;;;;;13.57;2.27;;;;;;;;;;5072638;28;20038;-57
2022/02/01 06:30:32;;;;;;;2.60;1.67;;;;;;;;;;5072730;28;20107;-57
2022/02/01 06:32:58;;;;;;;11.23;2.10;;;;;;;;;;5072477;28;20428;-58
2022/02/01 06:35:26;;;;;;;7.90;2.90;;;;;;;;;;5086969;28;20458;-57
2022/02/01 06:37:52;;;;;;;13.77;2.50;;;;;;;;;;5092795;28;20054;-58
2022/02/01 06:40:18;;;;;;;8.90;1.70;;;;;;;;;;5093146;28;20071;-58
2022/02/01 06:42:45;;;;;;;4.73;2.47;;;;;;;;;;5092976;28;20378;-57
2022/02/01 06:45:11;;;;;;;6.00;1.80;;;;;;;;;;5092700;28;20031;-57
2022/02/01 06:47:37;;;;;;;5.37;1.67;;;;;;;;;;5085081;28;20028;-57
2022/02/01 06:50:03;;;;;;;6.07;1.57;;;;;;;;;;5071088;28;20020;-58
2022/02/01 06:52:31;;;;;;;5.97;1.50;;;;;;;;;;5072806;28;20028;-58
2022/02/01 06:55:01;;;;;;;10.13;2.10;;;;;;;;;;5112433;28;20034;-58
2022/02/01 06:57:27;;;;;;;12.60;2.20;;;;;;;;;;5103450;27;20024;-58
2022/02/01 06:59:53;;;;;;;4.67;1.53;;;;;;;;;;5085444;28;20033;-58
2022/02/01 07:02:19;;;;;;;8.33;2.13;;;;;;;;;;5077488;28;20086;-58
2022/02/01 07:04:46;;;;;;;4.97;1.30;;;;;;;;;;5092074;28;20024;-58
2022/02/01 07:07:12;;;;;;;4.90;2.17;;;;;;;;;;5086989;28;20032;-58
2022/02/01 07:09:39;;;;;;;5.63;1.53;;;;;;;;;;5088687;28;20024;-58
2022/02/01 07:12:05;;;;;;;5.13;1.90;;;;;;;;;;5092265;28;20036;-57
2022/02/01 07:14:31;;;;;;;17.53;2.83;;;;;;;;;;5085035;28;20028;-58
2022/02/01 07:16:57;;;;;;;3.50;1.10;;;;;;;;;;5085834;28;20484;-58
2022/02/01 07:19:24;;;;;;;4.73;1.80;;;;;;;;;;5093803;28;20379;-58
2022/02/01 07:21:50;;;;;;;11.80;1.37;;;;;;;;;;5088072;28;20062;-58
2022/02/01 07:24:25;;;;;;;4.50;1.93;;;;;;;;;;5078955;28;20149;-57
2022/02/01 07:26:56;;;;;;;6.53;2.07;;;;;;;;;;5069098;28;20044;-58
2022/02/01 07:29:22;;;;;;;8.57;2.23;;;;;;;;;;5087609;28;20032;-58
2022/02/01 07:31:48;;;;;;;3.63;1.77;;;;;;;;;;5079575;28;20055;-57
2022/02/01 07:34:15;;;;;;;8.63;3.30;;;;;;;;;;5076153;28;20024;-56
2022/02/01 07:36:41;;;;;;;11.37;1.67;;;;;;;;;;5083787;28;20040;-57
2022/02/01 07:39:07;;;;;;;8.20;2.27;;;;;;;;;;5072400;28;20029;-57
2022/02/01 07:41:33;;;;;;;6.97;1.50;;;;;;;;;;5079338;28;20043;-57
2022/02/01 07:43:59;;;;;;;6.43;1.53;;;;;;;;;;5078734;28;20098;-58
2022/02/01 07:46:26;;;;;;;2.20;1.13;;;;;;;;;;5089156;28;20028;-58
2022/02/01 07:48:52;;;;;;;5.50;1.37;;;;;;;;;;5095023;28;20413;-57
2022/02/01 07:51:18;;;;;;;4.47;1.67;;;;;;;;;;5087213;28;20036;-58
2022/02/01 07:53:44;;;;;;;9.97;2.87;;;;;;;;;;5087735;28;20044;-57
2022/02/01 07:56:10;;;;;;;2.93;1.27;;;;;;;;;;5090529;28;20534;-58
2022/02/01 07:58:36;;;;;;;6.17;1.57;;;;;;;;;;5085331;28;20031;-55
2022/02/01 08:01:02;;;;;;;6.53;2.17;;;;;;;;;;5087707;28;20032;-58
2022/02/01 08:03:28;;;;;;;6.67;1.93;;;;;;;;;;5085458;28;20104;-58
2022/02/01 08:05:54;;;;;;;5.10;1.67;;;;;;;;;;5083246;28;20106;-57
2022/02/01 08:08:20;;;;;;;10.13;2.47;;;;;;;;;;5092417;28;20074;-57
2022/02/01 08:10:49;;;;;;;4.73;1.90;;;;;;;;;;5077961;28;20500;-57
2022/02/01 08:19:02;;;;;;;7.60;1.83;;;;;;;;;;5087061;28;20047;-57
2022/02/01 08:21:29;;;;;;;4.50;1.90;;;;;;;;;;5092134;28;20119;-57
2022/02/01 08:23:56;;;;;;;2.57;1.03;;;;;;;;;;5093558;28;20036;-57
2022/02/01 08:26:22;;;;;;;8.70;1.67;;;;;;;;;;5097063;28;20335;-57
2022/02/01 08:28:49;;;;;;;14.17;2.47;;;;;;;;;;5094012;28;20031;-58
2022/02/01 08:31:17;;;;;;;8.20;2.27;;;;;;;;;;5081770;28;20024;-57
2022/02/01 08:33:44;;;;;;;4.33;1.97;;;;;;;;;;5084902;28;20043;-58
2022/02/01 08:36:10;;;;;;;6.67;2.07;;;;;;;;;;5083378;28;20028;-57
2022/02/01 08:38:36;;;;;;;6.30;1.27;;;;;;;;;;5092527;28;20484;-57
2022/02/01 08:41:02;;;;;;;7.70;1.43;;;;;;;;;;5085808;28;20433;-57
2022/02/01 08:43:28;;;;;;;6.90;2.10;;;;;;;;;;5077992;28;20078;-57
2022/02/01 08:45:54;;;;;;;4.90;1.50;;;;;;;;;;5077810;28;20020;-58
2022/02/01 08:48:20;;;;;;;7.93;1.73;;;;;;;;;;5077005;28;20032;-57
2022/02/01 08:50:46;;;;;;;2.63;0.87;;;;;;;;;;5078199;28;20366;-56
2022/02/01 08:53:31;;;;;;;6.90;2.40;;;;;;;;;;5088417;28;20027;-58
2022/02/01 08:56:03;;;;;;;10.77;1.93;;;;;;;;;;5114409;27;20469;-58
2022/02/01 08:58:30;;;;;;;12.40;2.77;;;;;;;;;;5099710;28;20075;-58
2022/02/01 09:00:56;;;;;;;6.20;1.57;;;;;;;;;;5074765;28;20032;-58
2022/02/01 09:03:22;;;;;;;5.17;1.93;;;;;;;;;;5074373;28;20493;-57
2022/02/01 09:05:49;;;;;;;6.67;1.53;;;;;;;;;;5074602;28;20032;-57
2022/02/01 09:08:15;;;;;;;4.00;2.10;;;;;;;;;;5090034;28;20047;-57
2022/02/01 09:10:41;;;;;;;7.03;2.47;;;;;;;;;;5094780;28;20028;-56
2022/02/01 09:13:08;;;;;;;8.57;2.50;;;;;;;;;;5093424;28;20036;-57
2022/02/01 09:15:34;;;;;;;2.13;1.17;;;;;;;;;;5094349;28;20059;-57
2022/02/01 09:18:00;;;;;;;3.77;1.60;;;;;;;;;;5093911;28;20032;-57
2022/02/01 09:20:27;;;;;;;4.90;2.20;;;;;;;;;;5094667;28;20046;-57
2022/02/01 09:22:53;;;;;;;6.87;1.50;;;;;;;;;;5094376;28;20074;-58
2022/02/01 09:25:19;;;;;;;7.30;2.00;;;;;;;;;;5093837;28;20427;-57
2022/02/01 09:27:46;;;;;;;17.40;2.10;;;;;;;;;;5075820;28;20024;-57
2022/02/01 09:30:14;;;;;;;9.23;1.57;;;;;;;;;;5087833;28;20020;-58
2022/02/01 09:32:40;;;;;;;3.67;1.87;;;;;;;;;;5094378;28;20169;-57
2022/02/01 09:35:06;;;;;;;3.60;1.87;;;;;;;;;;5094295;28;20139;-57
2022/02/01 09:37:32;;;;;;;7.77;1.47;;;;;;;;;;5094278;28;20032;-57
2022/02/01 09:39:58;;;;;;;3.80;2.07;;;;;;;;;;5093582;28;20366;-57
2022/02/01 09:42:27;;;;;;;5.97;1.83;;;;;;;;;;5088181;28;20115;-57
2022/02/01 09:44:53;;;;;;;4.23;1.47;;;;;;;;;;5073789;28;20025;-57
2022/02/01 09:47:30;;;;;;;3.20;1.73;;;;;;;;;;5073829;28;20097;-58
2022/02/01 09:49:56;;;;;;;6.63;1.43;;;;;;;;;;5073121;28;20025;-58
2022/02/01 09:52:22;;;;;;;5.23;2.53;;;;;;;;;;5073805;28;20051;-57
2022/02/01 09:54:51;;;;;;;7.10;1.17;;;;;;;;;;5110562;28;20465;-58
2022/02/01 09:57:20;;;;;;;4.27;1.83;;;;;;;;;;5114416;28;20028;-58
2022/02/01 09:59:52;;;;;;;5.63;2.03;;;;;;;;;;5085237;27;20067;-58
2022/02/01 10:02:19;;;;;;;4.27;1.20;;;;;;;;;;5083374;28;20036;-58
2022/02/01 10:04:48;;;;;;;5.53;2.13;;;;;;;;;;5078292;28;20036;-56
2022/02/01 10:07:15;;;;;;;5.30;1.60;;;;;;;;;;5080686;28;20081;-59
2022/02/01 10:10:07;;;;;;;2.27;0.83;;;;;;;;;;5081764;28;20028;-57
2022/02/01 10:12:36;;;;;;;8.67;1.70;;;;;;;;;;5081200;28;20032;-58
2022/02/01 10:15:15;;;;;;;6.73;1.43;;;;;;;;;;5082089;28;20036;-58
2022/02/01 10:17:47;;;;;;;6.37;1.90;;;;;;;;;;5081034;28;20040;-59
2022/02/01 10:20:13;;;;;;;4.20;1.53;;;;;;;;;;5081163;28;20066;-59
2022/02/01 10:22:39;;;;;;;8.73;0.93;;;;;;;;;;5078130;28;20064;-58
2022/02/01 10:25:06;;;;;;;4.73;1.40;;;;;;;;;;5085483;28;20046;-59
2022/02/01 10:27:34;;;;;;;2.97;1.23;;;;;;;;;;5082985;28;20058;-58
2022/02/01 10:30:16;;;;;;;6.07;1.52;;;;;;;;;;5091461;28;20028;-58
2022/02/01 10:37:58;;;;;;;6.73;1.97;;;;;;;;;;5092560;28;20036;-59
2022/02/01 10:40:24;;;;;;;2.30;1.20;;;;;;;;;;5092739;28;20401;-58
2022/02/01 10:43:02;;;;;;;3.28;1.25;;;;;;;;;;5092193;28;20116;-58
2022/02/01 10:45:28;;;;;;;3.03;1.07;;;;;;;;;;5093051;28;20032;-58
2022/02/01 10:47:54;;;;;;;4.03;1.70;;;;;;;;;;5090719;28;20069;-57
2022/02/01 10:50:23;;;;;;;4.60;1.60;;;;;;;;;;5086902;28;20036;-58
2022/02/01 10:52:50;;;;;;;2.58;1.33;;;;;;;;;;5087222;28;20059;-58
2022/02/01 10:55:17;;;;;;;4.00;1.43;;;;;;;;;;5108248;28;20028;-58
2022/02/01 10:57:43;;;;;;;11.10;2.90;;;;;;;;;;5096804;28;20055;-59
2022/02/01 11:00:10;;;;;;;1.23;0.63;;;;;;;;;;5074006;28;20056;-58
2022/02/01 11:02:42;;;;;;;3.63;2.30;;;;;;;;;;5073714;28;20119;-58
2022/02/01 11:05:09;;;;;;;2.65;0.90;;;;;;;;;;5078731;28;20031;-58
2022/02/01 11:07:35;;;;;;;1.63;1.03;;;;;;;;;;5082002;28;20024;-58
2022/02/01 11:10:01;;;;;;;7.43;1.60;;;;;;;;;;5083341;28;20214;-58
2022/02/01 11:12:33;;;;;;;3.70;1.73;;;;;;;;;;5082313;28;20470;-58
2022/02/01 11:14:59;;;;;;;1.10;0.53;;;;;;;;;;5078307;28;20103;-58
2022/02/01 11:17:25;;;;;;;7.47;1.33;;;;;;;;;;5080036;28;20142;-57
2022/02/01 11:19:53;;;;;;;1.88;0.50;;;;;;;;;;5075563;28;20496;-58
2022/02/01 11:22:28;;;;;;;4.95;1.33;;;;;;;;;;5084433;28;20066;-58
2022/02/01 11:24:54;;;;;;;3.08;0.98;;;;;;;;;;5080921;28;20033;-58
2022/02/01 11:27:31;;;;;;;2.47;0.88;;;;;;;;;;5089008;28;20040;-59
2022/02/01 11:30:11;;;;;;;3.00;1.13;;;;;;;;;;5079098;28;20054;-59
2022/02/01 11:32:39;;;;;;;1.48;0.55;;;;;;;;;;5088712;28;20043;-58
2022/02/01 11:35:06;;;;;;;3.67;0.60;;;;;;;;;;5086942;28;20040;-56
2022/02/01 11:37:32;;;;;;;5.43;1.87;;;;;;;;;;5076431;28;20049;-59
2022/02/01 11:39:59;;;;;;;4.10;1.77;;;;;;;;;;5080660;28;20024;-58
2022/02/01 11:42:32;;;;;;;8.03;1.23;;;;;;;;;;5073341;28;20040;-58
2022/02/01 11:45:03;;;;;;;6.90;1.40;;;;;;;;;;5084287;28;20031;-58
2022/02/01 11:47:37;;;;;;;4.23;1.40;;;;;;;;;;5076009;28;20377;-58
2022/02/01 11:50:12;;;;;;;2.10;1.23;;;;;;;;;;5087336;28;20073;-59
2022/02/01 11:52:43;;;;;;;2.03;0.90;;;;;;;;;;5087099;28;20040;-58
2022/02/01 11:55:09;;;;;;;2.15;0.80;;;;;;;;;;5096457;28;20056;-59
2022/02/01 11:57:41;;;;;;;5.87;1.27;;;;;;;;;;5071638;28;20092;-58
2022/02/01 12:00:21;;;;;;;1.80;1.00;;;;;;;;;;5075282;28;20377;-59
2022/02/01 12:02:53;;;;;;;6.70;1.15;;;;;;;;;;5083884;28;20031;-58
2022/02/01 12:05:27;;;;;;;8.00;1.33;;;;;;;;;;5073912;28;20440;-58
2022/02/01 12:08:08;;;;;;;0.80;0.50;;;;;;;;;;5074122;28;20047;-59
2022/02/01 12:10:48;;;;;;;5.70;1.60;;;;;;;;;;5080975;28;20023;-59
2022/02/01 12:13:15;;;;;;;6.57;1.02;;;;;;;;;;5071709;28;20017;-58
2022/02/01 12:15:42;;;;;;;4.47;1.23;;;;;;;;;;5085327;28;20042;-59
2022/02/01 12:18:27;;;;;;;1.13;0.73;;;;;;;;;;5076788;28;20107;-59
2022/02/01 12:21:12;;;;;;;1.57;0.90;;;;;;;;;;5080378;28;20128;-57
2022/02/01 12:23:47;;;;;;;5.13;1.17;;;;;;;;;;5071596;28;20024;-59
2022/02/01 12:26:20;;;;;;;2.13;1.00;;;;;;;;;;5076889;28;20027;-58
2022/02/01 12:28:46;;;;;;;3.50;1.20;;;;;;;;;;5061645;28;20032;-59
2022/02/01 12:31:13;;;;;;;1.40;0.83;;;;;;;;;;5072569;28;20035;-59
2022/02/01 12:33:41;;;;;;;2.53;0.80;;;;;;;;;;5062364;28;20025;-59
2022/02/01 12:36:07;;;;;;;2.93;0.77;;;;;;;;;;5065106;28;20040;-59
2022/02/01 12:38:33;;;;;;;4.57;1.60;;;;;;;;;;5070661;28;20084;-59
2022/02/01 12:41:11;;;;;;;1.17;0.53;;;;;;;;;;5093093;28;20036;-58
2022/02/01 12:43:54;;;;;;;1.97;0.90;;;;;;;;;;5075117;28;20035;-59
2022/02/01 12:46:39;;;;;;;2.23;1.20;;;;;;;;;;5088495;28;20032;-58
2022/02/01 12:49:05;;;;;;;5.83;1.30;;;;;;;;;;5087503;28;20028;-59
2022/02/01 12:51:41;;;;;;;4.37;0.73;;;;;;;;;;5086034;28;20040;-59
2022/02/01 12:54:07;;;;;;;2.30;0.53;;;;;;;;;;5087763;28;20081;-58
2022/02/01 12:56:34;;;;;;;2.97;1.00;;;;;;;;;;5081853;28;20032;-58
2022/02/01 12:59:01;;;;;;;4.73;1.07;;;;;;;;;;5086150;28;20055;-59
2022/02/01 13:01:37;;;;;;;2.90;1.33;;;;;;;;;;5080440;28;20037;-60
2022/02/01 13:04:03;;;;;;;5.03;1.73;;;;;;;;;;5084445;28;20025;-59
2022/02/01 13:06:34;;;;;;;3.07;1.00;;;;;;;;;;5074781;28;20028;-59
2022/02/01 13:14:45;;;;;;;6.80;1.10;;;;;;;;;;5059589;28;20047;-59
2022/02/01 13:22:25;;;;;;;1.93;0.87;;;;;;;;;;5072584;28;20133;-58
2022/02/01 13:25:00;;;;;;;1.03;0.60;;;;;;;;;;5086055;28;20028;-59
2022/02/01 13:27:26;;;;;;;1.27;0.97;;;;;;;;;;5068170;28;20494;-59
2022/02/01 13:30:05;;;;;;;4.17;1.20;;;;;;;;;;5071989;28;20024;-59
2022/02/01 13:32:36;;;;;;;1.17;0.47;;;;;;;;;;5057140;28;20185;-60
2022/02/01 13:35:04;;;;;;;4.00;1.30;;;;;;;;;;5069440;28;20065;-57
2022/02/01 13:37:30;;;;;;;3.43;0.70;;;;;;;;;;5074113;28;20028;-59
2022/02/01 13:39:56;;;;;;;2.40;0.90;;;;;;;;;;5059644;28;20043;-59
2022/02/01 13:42:27;;;;;;;2.30;0.83;;;;;;;;;;5069986;28;20032;-59
2022/02/01 13:44:54;;;;;;;2.33;1.37;;;;;;;;;;5062364;28;20706;-59
2022/02/01 13:47:30;;;;;;;2.63;1.50;;;;;;;;;;5064207;28;20032;-59
2022/02/01 13:49:58;;;;;;;2.90;0.97;;;;;;;;;;5060302;28;20027;-59
2022/02/01 13:52:25;;;;;;;11.73;1.73;;;;;;;;;;5062634;28;20021;-59
2022/02/01 13:54:51;;;;;;;2.63;1.10;;;;;;;;;;5069927;28;20024;-59
2022/02/01 13:57:18;;;;;;;6.47;1.37;;;;;;;;;;5061421;28;20067;-59
2022/02/01 13:59:45;;;;;;;6.73;1.73;;;;;;;;;;5059257;28;20037;-59
2022/02/01 14:02:19;;;;;;;1.40;0.80;;;;;;;;;;5060349;28;20505;-59
2022/02/01 14:04:51;;;;;;;6.83;1.60;;;;;;;;;;5062413;28;20520;-59
2022/02/01 14:25:45;;;;;;;6.67;1.53;;;;;;;;;;5070568;28;20515;-59
2022/02/01 14:28:28;;;;;;;2.40;1.37;;;;;;;;;;5072056;28;20028;-59
2022/02/01 14:33:58;;;;;;;1.93;1.07;;;;;;;;;;5079171;28;20093;-58
2022/02/01 14:36:28;;;;;;;4.17;1.40;;;;;;;;;;5058892;28;20115;-59
2022/02/01 14:44:44;;;;;;;1.93;1.13;;;;;;;;;;5072023;28;20521;-58
2022/02/01 14:47:11;;;;;;;1.63;0.93;;;;;;;;;;5064416;28;20020;-59
2022/02/01 14:49:38;;;;;;;1.10;0.63;;;;;;;;;;5079238;28;20473;-59
2022/02/01 14:52:05;;;;;;;5.07;1.80;;;;;;;;;;5063031;28;20032;-59
2022/02/01 14:54:35;;;;;;;2.13;1.00;;;;;;;;;;5058192;28;20037;-58
2022/02/01 15:13:18;;;;;;;1.93;0.97;;;;;;;;;;5058651;28;20064;-58
2022/02/01 15:15:45;;;;;;;1.10;0.67;;;;;;;;;;5058189;28;20159;-58
2022/02/01 15:18:11;;;;;;;1.83;0.70;;;;;;;;;;5058452;28;20568;-58
2022/02/01 15:20:36;;;;;;;1.43;0.83;;;;;;;;;;5073122;28;20035;-59
2022/02/01 15:23:03;;;;;;;1.80;0.70;;;;;;;;;;5078521;28;20062;-59
2022/02/01 15:25:29;;;;;;;2.23;0.80;;;;;;;;;;5086143;28;20060;-59
2022/02/01 15:27:55;;;;;;;1.30;1.00;;;;;;;;;;5077374;28;20564;-59
2022/02/01 15:30:21;;;;;;;3.10;1.63;;;;;;;;;;5068913;28;20029;-59
2022/02/01 15:32:50;;;;;;;6.33;1.73;;;;;;;;;;5080238;28;20050;-58
2022/02/01 15:35:17;;;;;;;2.80;0.80;;;;;;;;;;5084917;28;20350;-58
2022/02/01 15:37:45;;;;;;;5.17;2.27;;;;;;;;;;5072121;28;20714;-59
2022/02/01 15:46:31;;;;;;;3.00;1.20;;;;;;;;;;5059489;28;20081;-59
2022/02/01 15:54:48;;;;;;;2.27;1.57;;;;;;;;;;5083651;28;20035;-59
2022/02/01 15:57:29;;;;;;;4.57;0.90;;;;;;;;;;5076393;28;20048;-58
2022/02/01 15:59:56;;;;;;;3.25;1.73;;;;;;;;;;5085178;28;20036;-59
2022/02/01 16:02:23;;;;;;;2.57;1.27;;;;;;;;;;5078449;28;20113;-59
2022/02/01 16:04:55;;;;;;;2.23;1.40;;;;;;;;;;5079894;28;20385;-59
2022/02/01 16:07:22;;;;;;;1.17;0.80;;;;;;;;;;5087080;28;20040;-59
2022/02/01 16:12:27;;;;;;;2.67;1.43;;;;;;;;;;5077901;28;20473;-59
2022/02/01 16:14:53;;;;;;;6.63;1.77;;;;;;;;;;5076093;28;20020;-58
2022/02/01 16:17:19;;;;;;;1.70;1.13;;;;;;;;;;5093014;28;20034;-59
2022/02/01 16:19:44;;;;;;;2.00;1.00;;;;;;;;;;5095464;28;20058;-59
2022/02/01 16:22:11;;;;;;;2.07;1.37;;;;;;;;;;5095465;28;20039;-59
2022/02/01 16:24:38;;;;;;;4.17;1.30;;;;;;;;;;5094917;28;20021;-59
2022/02/01 16:27:05;;;;;;;3.23;1.30;;;;;;;;;;5095921;28;20032;-59
2022/02/01 16:29:31;;;;;;;2.10;0.97;;;;;;;;;;5094937;28;20054;-58
2022/02/01 16:31:57;;;;;;;2.43;1.13;;;;;;;;;;5098781;28;20051;-58
2022/02/01 16:34:24;;;;;;;1.80;0.87;;;;;;;;;;5085540;28;20024;-59
2022/02/01 16:36:50;;;;;;;1.70;1.10;;;;;;;;;;5082573;28;20040;-59
2022/02/01 16:39:16;;;;;;;1.53;0.73;;;;;;;;;;5083404;28;20031;-59
2022/02/01 16:41:43;;;;;;;1.30;0.80;;;;;;;;;;5092994;28;20040;-59
2022/02/01 16:44:11;;;;;;;3.93;1.23;;;;;;;;;;5077320;28;20149;-59
2022/02/01 16:46:38;;;;;;;1.37;0.90;;;;;;;;;;5074885;28;20115;-59
2022/02/01 16:49:05;;;;;;;1.23;0.67;;;;;;;;;;5080654;28;20102;-59
2022/02/01 16:51:32;;;;;;;4.77;1.00;;;;;;;;;;5075906;28;20055;-60
2022/02/01 16:54:04;;;;;;;1.63;0.70;;;;;;;;;;5087286;28;20021;-58
2022/02/01 17:01:39;;;;;;;3.93;1.10;;;;;;;;;;5092115;28;20052;-59
2022/02/01 17:04:05;;;;;;;3.17;0.80;;;;;;;;;;5090503;28;20032;-59
2022/02/01 17:06:31;;;;;;;1.43;1.03;;;;;;;;;;5084427;28;20024;-59
2022/02/01 17:08:57;;;;;;;7.10;1.30;;;;;;;;;;5089213;28;20051;-59
2022/02/01 17:11:43;;;;;;;1.37;0.67;;;;;;;;;;5083973;28;20381;-60
2022/02/01 17:14:52;;;;;;;1.10;0.40;;;;;;;;;;5091196;28;20036;-59
2022/02/01 17:17:38;;;;;;;1.40;0.60;;;;;;;;;;5077023;28;20130;-59
2022/02/01 17:22:48;;;;;;;;;;;;;;;;;;5085279;28;19945;-59
2022/02/01 17:25:14;;;;;;;;;;;;;;;;;;5086634;28;19908;-60
2022/02/01 17:27:40;;;;;;;;;;;;;;;;;;5087529;28;19908;-59
2022/02/01 17:30:07;;;;;;;;;;;;;;;;;;5084946;28;20321;-59
2022/02/01 17:32:33;;;;;;;;;;;;;;;;;;5092025;28;19908;-59
2022/02/01 17:34:58;;;;;;;;;;;;;;;;;;5076913;28;19912;-59
2022/02/01 17:37:24;;;;;;;;;;;;;;;;;;5078730;28;19916;-59
2022/02/01 17:39:50;;;;;;;;;;;;;;;;;;5074547;28;19927;-59
2022/02/01 17:42:16;;;;;;;;;;;;;;;;;;5082969;28;20095;-60
2022/02/01 17:44:43;;;;;;;;;;;;;;;;;;5069463;28;20238;-60